createdAt,value
2022-09-11T00:01:08.692Z,2.70
2022-09-11T00:03:37.430Z,2.80
2022-09-11T00:06:07.061Z,2.73
2022-09-11T00:08:35.715Z,2.70
2022-09-11T00:11:05.747Z,2.47
2022-09-11T00:13:37.053Z,2.43
2022-09-11T00:16:07.172Z,2.50
2022-09-11T00:18:36.594Z,2.30
2022-09-11T00:21:05.501Z,2.30
2022-09-11T00:23:33.372Z,2.30
2022-09-11T00:26:03.466Z,2.17
2022-09-11T00:28:31.789Z,2.67
2022-09-11T00:31:03.029Z,2.60
2022-09-11T00:33:31.216Z,2.27
2022-09-11T00:36:01.973Z,2.53
2022-09-11T00:38:32.002Z,2.53
2022-09-11T00:41:02.329Z,2.43
2022-09-11T00:43:50.017Z,2.60
2022-09-11T00:46:19.712Z,2.50
2022-09-11T00:48:50.063Z,2.13
2022-09-11T00:51:23.112Z,2.30
2022-09-11T00:53:52.736Z,2.20
2022-09-11T00:56:21.676Z,2.27
2022-09-11T00:58:51.752Z,2.37
2022-09-11T01:01:20.967Z,2.50
2022-09-11T01:03:49.492Z,2.30
2022-09-11T01:06:18.054Z,2.57
2022-09-11T01:08:45.859Z,2.03
2022-09-11T01:11:27.426Z,2.20
2022-09-11T01:14:03.092Z,2.37
2022-09-11T01:16:40.305Z,2.30
2022-09-11T01:19:21.877Z,2.60
2022-09-11T01:22:15.881Z,2.80
2022-09-11T01:25:03.880Z,2.20
2022-09-11T01:27:52.097Z,2.70
2022-09-11T01:30:22.211Z,2.67
2022-09-11T01:33:07.226Z,2.70
2022-09-11T01:35:43.060Z,2.83
2022-09-11T01:38:18.520Z,2.47
2022-09-11T01:40:53.921Z,2.60
2022-09-11T01:43:28.926Z,2.40
2022-09-11T01:45:59.610Z,2.27
2022-09-11T01:48:32.608Z,2.40
2022-09-11T01:51:03.497Z,2.70
2022-09-11T01:53:37.412Z,2.40
2022-09-11T01:56:10.898Z,2.00
2022-09-11T01:58:43.487Z,2.67
2022-09-11T02:01:16.610Z,2.30
2022-09-11T02:03:49.428Z,2.20
2022-09-11T02:06:22.552Z,2.60
2022-09-11T02:08:54.441Z,2.50
2022-09-11T02:11:24.659Z,2.20
2022-09-11T02:14:00.846Z,2.10
2022-09-11T02:16:40.565Z,2.27
2022-09-11T02:19:12.858Z,2.50
2022-09-11T02:21:41.516Z,2.23
2022-09-11T02:24:10.691Z,2.00
2022-09-11T02:26:45.005Z,2.20
2022-09-11T02:29:15.151Z,2.30
2022-09-11T02:31:43.701Z,2.50
2022-09-11T02:34:13.949Z,2.30
2022-09-11T02:36:56.325Z,2.47
2022-09-11T02:39:36.579Z,2.23
2022-09-11T02:42:22.930Z,2.33
2022-09-11T02:45:02.153Z,2.10
2022-09-11T02:47:43.125Z,2.53
2022-09-11T02:50:23.671Z,2.53
2022-09-11T02:52:59.640Z,2.23
2022-09-11T02:55:36.971Z,2.07
2022-09-11T02:58:10.963Z,2.40
2022-09-11T03:00:41.807Z,2.27
2022-09-11T03:03:10.149Z,2.20
2022-09-11T03:05:40.224Z,2.80
2022-09-11T03:08:08.473Z,2.30
2022-09-11T03:10:38.529Z,2.27
2022-09-11T03:13:09.380Z,2.00
2022-09-11T03:15:37.429Z,2.00
2022-09-11T03:18:06.865Z,2.30
2022-09-11T03:20:34.828Z,2.30
2022-09-11T03:23:05.281Z,2.03
2022-09-11T03:25:33.184Z,2.30
2022-09-11T03:28:04.674Z,2.20
2022-09-11T03:30:35.135Z,2.23
2022-09-11T03:33:03.095Z,2.17
2022-09-11T03:35:32.457Z,2.50
2022-09-11T03:38:00.488Z,2.17
2022-09-11T03:40:28.313Z,2.50
2022-09-11T03:42:56.143Z,2.30
2022-09-11T03:45:23.958Z,2.70
2022-09-11T03:47:52.010Z,2.60
2022-09-11T03:50:19.832Z,2.30
2022-09-11T03:52:50.065Z,3.00
2022-09-11T03:55:18.424Z,2.27
2022-09-11T03:57:46.262Z,2.43
2022-09-11T04:00:14.444Z,2.93
2022-09-11T04:02:48.613Z,3.90
2022-09-11T04:05:29.269Z,3.97
2022-09-11T04:07:59.305Z,3.07
2022-09-11T04:10:27.173Z,3.30
2022-09-11T04:12:57.714Z,3.07
2022-09-11T04:15:25.811Z,2.93
2022-09-11T04:17:53.869Z,2.67
2022-09-11T04:20:23.265Z,3.00
2022-09-11T04:22:51.052Z,3.40
2022-09-11T04:25:20.332Z,3.97
2022-09-11T04:27:48.141Z,3.53
2022-09-11T04:30:17.653Z,3.40
2022-09-11T04:32:46.214Z,3.30
2022-09-11T04:35:14.392Z,3.57
2022-09-11T04:37:50.578Z,3.43
2022-09-11T04:40:19.905Z,3.67
2022-09-11T04:42:48.228Z,3.47
2022-09-11T04:45:16.224Z,3.43
2022-09-11T04:47:44.296Z,3.07
2022-09-11T04:50:13.925Z,2.80
2022-09-11T04:52:45.853Z,2.70
2022-09-11T04:55:13.803Z,2.97
2022-09-11T04:57:43.021Z,3.17
2022-09-11T05:00:12.542Z,3.20
2022-09-11T05:02:40.569Z,2.90
2022-09-11T05:05:10.181Z,2.97
2022-09-11T05:07:38.346Z,3.00
2022-09-11T05:10:08.265Z,3.00
2022-09-11T05:12:36.154Z,2.80
2022-09-11T05:15:06.185Z,2.63
2022-09-11T05:17:34.261Z,2.90
2022-09-11T05:20:02.737Z,3.20
2022-09-11T05:22:32.179Z,2.30
2022-09-11T05:25:02.823Z,2.73
2022-09-11T05:27:31.364Z,2.60
2022-09-11T05:29:59.833Z,3.20
2022-09-11T05:32:32.757Z,3.47
2022-09-11T05:35:02.848Z,3.30
2022-09-11T05:37:32.202Z,2.20
2022-09-11T05:40:00.458Z,2.60
2022-09-11T05:42:28.610Z,2.53
2022-09-11T05:44:57.032Z,2.93
2022-09-11T05:47:28.314Z,2.70
2022-09-11T05:49:58.493Z,2.53
2022-09-11T05:52:29.758Z,1.90
2022-09-11T05:54:58.136Z,2.30
2022-09-11T05:57:26.897Z,2.57
2022-09-11T05:59:54.690Z,2.70
2022-09-11T06:02:22.478Z,2.40
2022-09-11T06:04:56.671Z,4.00
2022-09-11T06:07:27.334Z,4.20
2022-09-11T06:09:57.804Z,4.00
2022-09-11T06:12:29.020Z,3.97
2022-09-11T06:14:58.564Z,2.20
2022-09-11T06:17:26.483Z,2.90
2022-09-11T06:19:54.459Z,2.53
2022-09-11T06:22:23.084Z,2.13
2022-09-11T06:24:55.415Z,2.27
2022-09-11T06:27:25.090Z,2.30
2022-09-11T06:29:55.418Z,2.60
2022-09-11T06:32:23.238Z,2.43
2022-09-11T06:34:52.225Z,2.63
2022-09-11T06:37:20.126Z,2.60
2022-09-11T06:39:48.429Z,3.00
2022-09-11T06:42:24.598Z,2.70
2022-09-11T06:44:52.678Z,8.43
2022-09-11T06:47:21.588Z,3.00
2022-09-11T06:49:50.042Z,2.43
2022-09-11T06:52:28.086Z,6.90
2022-09-11T06:55:25.137Z,2.50
2022-09-11T06:58:02.186Z,2.30
2022-09-11T07:00:32.223Z,2.30
2022-09-11T07:03:02.078Z,2.50
2022-09-11T07:05:31.133Z,2.63
2022-09-11T07:08:01.811Z,2.30
2022-09-11T07:10:34.180Z,4.60
2022-09-11T07:13:04.672Z,2.57
2022-09-11T07:15:33.016Z,2.60
2022-09-11T07:18:02.588Z,2.47
2022-09-11T07:20:31.591Z,2.50
2022-09-11T07:22:59.659Z,2.10
2022-09-11T07:25:30.143Z,2.83
2022-09-11T07:27:58.027Z,2.70
2022-09-11T07:30:27.851Z,2.57
2022-09-11T07:32:57.385Z,3.20
2022-09-11T07:35:25.483Z,2.63
2022-09-11T07:37:54.500Z,2.60
2022-09-11T07:40:26.492Z,2.20
2022-09-11T07:42:54.644Z,2.33
2022-09-11T07:45:23.168Z,2.20
2022-09-11T07:47:53.480Z,2.20
2022-09-11T07:50:24.260Z,2.50
2022-09-11T07:52:52.284Z,2.63
2022-09-11T07:55:21.229Z,2.30
2022-09-11T07:57:51.970Z,2.40
2022-09-11T08:00:20.125Z,2.70
2022-09-11T08:02:48.620Z,2.53
2022-09-11T08:05:24.053Z,2.43
2022-09-11T08:07:52.526Z,2.70
2022-09-11T08:10:27.717Z,2.90
2022-09-11T08:12:59.903Z,2.37
2022-09-11T08:15:31.444Z,2.73
2022-09-11T08:18:00.289Z,2.60
2022-09-11T08:20:33.548Z,2.23
2022-09-11T08:23:02.188Z,2.70
2022-09-11T08:25:30.182Z,2.50
2022-09-11T08:27:59.999Z,2.33
2022-09-11T08:30:28.525Z,2.50
2022-09-11T08:32:56.356Z,2.47
2022-09-11T08:35:24.192Z,4.20
2022-09-11T08:37:55.031Z,2.80
2022-09-11T08:40:23.774Z,2.33
2022-09-11T08:42:53.265Z,2.53
2022-09-11T08:45:24.601Z,2.47
2022-09-11T08:47:57.011Z,2.83
2022-09-11T08:50:27.516Z,2.50
2022-09-11T08:52:59.281Z,2.43
2022-09-11T08:55:39.400Z,2.93
2022-09-11T08:58:18.273Z,2.40
2022-09-11T09:00:55.688Z,2.60
2022-09-11T09:03:38.983Z,3.10
2022-09-11T09:06:21.413Z,3.07
2022-09-11T09:09:04.566Z,3.30
2022-09-11T09:11:41.767Z,2.90
2022-09-11T09:14:29.389Z,2.90
2022-09-11T09:17:03.357Z,2.67
2022-09-11T09:19:40.797Z,2.87
2022-09-11T09:22:15.103Z,2.27
2022-09-11T09:24:49.613Z,2.80
2022-09-11T09:27:21.398Z,2.70
2022-09-11T09:29:55.653Z,2.43
2022-09-11T09:32:32.268Z,2.83
2022-09-11T09:35:06.385Z,3.27
2022-09-11T09:37:35.007Z,8.03
2022-09-11T09:40:09.158Z,3.30
2022-09-11T09:43:10.992Z,2.57
2022-09-11T09:45:53.142Z,2.60
2022-09-11T09:48:21.601Z,2.53
2022-09-11T09:50:49.698Z,3.43
2022-09-11T09:53:27.318Z,2.90
2022-09-11T09:55:57.159Z,2.60
2022-09-11T09:58:29.702Z,3.07
2022-09-11T10:00:57.530Z,2.73
2022-09-11T10:03:26.388Z,2.60
2022-09-11T10:05:56.219Z,2.70
2022-09-11T10:08:31.294Z,3.00
2022-09-11T10:11:02.368Z,2.87
2022-09-11T10:13:32.853Z,2.80
2022-09-11T10:16:03.891Z,3.40
2022-09-11T10:18:37.573Z,3.47
2022-09-11T10:21:21.138Z,3.50
2022-09-11T10:23:51.693Z,3.80
2022-09-11T10:26:27.291Z,3.40
2022-09-11T10:28:57.593Z,3.50
2022-09-11T10:31:26.238Z,4.00
2022-09-11T10:33:57.321Z,3.50
2022-09-11T10:36:28.043Z,3.00
2022-09-11T10:38:58.425Z,2.90
2022-09-11T10:41:32.165Z,3.30
2022-09-11T10:44:04.243Z,3.00
2022-09-11T10:46:40.848Z,3.73
2022-09-11T10:49:17.476Z,3.10
2022-09-11T10:52:01.782Z,3.50
2022-09-11T10:54:45.843Z,2.90
2022-09-11T10:57:23.520Z,2.70
2022-09-11T11:00:02.124Z,2.53
2022-09-11T11:02:33.062Z,4.60
2022-09-11T11:05:04.611Z,3.50
2022-09-11T11:07:54.319Z,5.40
2022-09-11T11:10:35.691Z,3.17
2022-09-11T11:13:16.293Z,3.33
2022-09-11T11:15:59.394Z,6.20
2022-09-11T11:18:39.447Z,3.00
2022-09-11T11:21:20.628Z,2.97
2022-09-11T11:24:02.842Z,2.83
2022-09-11T11:26:45.454Z,3.37
2022-09-11T11:29:37.988Z,2.90
2022-09-11T11:32:27.009Z,3.47
2022-09-11T11:35:12.322Z,2.70
2022-09-11T11:37:42.857Z,2.67
2022-09-11T11:40:20.916Z,2.33
2022-09-11T11:42:56.055Z,2.90
2022-09-11T11:45:31.805Z,2.70
2022-09-11T11:48:00.762Z,2.50
2022-09-11T11:50:35.572Z,2.93
2022-09-11T11:53:12.308Z,2.77
2022-09-11T11:55:47.972Z,2.63
2022-09-11T11:58:24.106Z,2.70
2022-09-11T12:01:01.610Z,3.17
2022-09-11T12:03:37.437Z,3.20
2022-09-11T12:06:07.458Z,3.00
2022-09-11T12:08:43.259Z,2.77
2022-09-11T12:11:13.766Z,2.50
2022-09-11T12:13:44.913Z,2.70
2022-09-11T12:16:19.089Z,2.43
2022-09-11T12:19:08.631Z,2.63
2022-09-11T12:22:21.232Z,2.40
2022-09-11T12:24:59.040Z,2.30
2022-09-11T12:27:54.025Z,2.40
2022-09-11T12:30:26.540Z,2.40
2022-09-11T12:32:57.250Z,2.23
2022-09-11T12:35:34.794Z,2.40
2022-09-11T12:38:13.164Z,2.40
2022-09-11T12:40:50.497Z,3.03
2022-09-11T12:43:29.774Z,2.60
2022-09-11T12:45:58.008Z,2.40
2022-09-11T12:48:38.646Z,2.60
2022-09-11T12:51:16.437Z,2.57
2022-09-11T12:53:47.204Z,3.03
2022-09-11T12:56:19.244Z,2.80
2022-09-11T12:58:47.908Z,2.83
2022-09-11T13:01:22.769Z,2.80
2022-09-11T13:04:01.002Z,2.60
2022-09-11T13:06:40.691Z,2.37
2022-09-11T13:09:17.555Z,2.90
2022-09-11T13:11:48.021Z,2.60
2022-09-11T13:14:52.299Z,2.83
2022-09-11T13:17:30.165Z,2.67
2022-09-11T13:20:20.605Z,2.37
2022-09-11T13:22:49.039Z,2.80
2022-09-11T13:25:19.216Z,4.53
2022-09-11T13:27:50.928Z,2.93
2022-09-11T13:30:21.563Z,2.33
2022-09-11T13:32:52.138Z,2.70
2022-09-11T13:35:25.635Z,2.70
2022-09-11T13:37:59.492Z,2.80
2022-09-11T13:40:31.723Z,2.70
2022-09-11T13:43:00.794Z,2.37
2022-09-11T13:45:28.957Z,2.30
2022-09-11T13:47:57.913Z,4.03
2022-09-11T13:50:27.536Z,2.30
2022-09-11T13:52:55.941Z,2.40
2022-09-11T13:55:27.168Z,2.00
2022-09-11T13:57:58.456Z,2.80
2022-09-11T14:00:44.796Z,2.60
2022-09-11T14:03:21.468Z,2.40
2022-09-11T14:05:56.374Z,2.73
2022-09-11T14:08:32.462Z,2.70
2022-09-11T14:11:07.069Z,2.63
2022-09-11T14:13:43.411Z,2.40
2022-09-11T14:16:22.531Z,2.70
2022-09-11T14:18:53.884Z,3.00
2022-09-11T14:21:26.969Z,2.60
2022-09-11T14:23:56.769Z,2.30
2022-09-11T14:26:25.963Z,2.60
2022-09-11T14:29:02.909Z,2.50
2022-09-11T14:31:33.968Z,2.90
2022-09-11T14:34:19.605Z,2.80
2022-09-11T14:36:58.966Z,2.77
2022-09-11T14:39:34.655Z,3.63
2022-09-11T14:42:03.272Z,4.40
2022-09-11T14:44:32.148Z,4.03
2022-09-11T14:46:59.944Z,3.17
2022-09-11T14:49:29.549Z,2.80
2022-09-11T14:52:00.266Z,2.63
2022-09-11T14:54:31.069Z,3.00
2022-09-11T14:56:59.500Z,3.37
2022-09-11T14:59:29.054Z,3.07
2022-09-11T15:01:58.425Z,3.00
2022-09-11T15:04:27.395Z,3.00
2022-09-11T15:06:56.453Z,2.83
2022-09-11T15:09:25.674Z,2.70
2022-09-11T15:11:53.456Z,3.10
2022-09-11T15:14:38.490Z,2.60
2022-09-11T15:17:11.762Z,3.03
2022-09-11T15:19:39.749Z,3.50
2022-09-11T15:22:08.478Z,3.23
2022-09-11T15:24:37.648Z,3.00
2022-09-11T15:27:05.969Z,3.30
2022-09-11T15:29:34.425Z,4.00
2022-09-11T15:32:03.418Z,2.90
2022-09-11T15:34:33.127Z,3.03
2022-09-11T15:37:01.123Z,3.10
2022-09-11T15:39:29.220Z,3.20
2022-09-11T15:41:59.203Z,3.30
2022-09-11T15:44:28.790Z,3.73
2022-09-11T15:46:58.692Z,3.40
2022-09-11T15:49:28.388Z,3.90
2022-09-11T15:51:56.368Z,3.43
2022-09-11T15:54:24.785Z,3.60
2022-09-11T15:56:53.407Z,6.50
2022-09-11T15:59:22.783Z,3.10
2022-09-11T16:01:50.895Z,3.13
2022-09-11T16:04:23.037Z,6.30
2022-09-11T16:06:53.609Z,3.43
2022-09-11T16:09:23.969Z,2.80
2022-09-11T16:11:52.951Z,3.70
2022-09-11T16:14:24.516Z,3.70
2022-09-11T16:16:53.325Z,3.10
2022-09-11T16:19:22.852Z,3.87
2022-09-11T16:21:51.354Z,3.57
2022-09-11T16:24:19.170Z,3.27
2022-09-11T16:26:47.165Z,3.63
2022-09-11T16:29:17.968Z,3.80
2022-09-11T16:31:47.128Z,4.03
2022-09-11T16:34:17.605Z,2.90
2022-09-11T16:36:46.157Z,3.63
2022-09-11T16:39:16.477Z,4.13
2022-09-11T16:41:44.624Z,4.03
2022-09-11T16:44:14.808Z,4.00
2022-09-11T16:46:43.364Z,3.60
2022-09-11T16:49:16.441Z,3.00
2022-09-11T16:51:45.767Z,2.90
2022-09-11T16:54:13.655Z,3.60
2022-09-11T16:56:45.890Z,3.53
2022-09-11T16:59:15.608Z,3.60
2022-09-11T17:01:43.627Z,3.60
2022-09-11T17:04:12.849Z,3.57
2022-09-11T17:06:40.644Z,4.10
2022-09-11T17:09:08.455Z,3.63
2022-09-11T17:11:37.136Z,3.70
2022-09-11T17:14:05.319Z,3.33
2022-09-11T17:16:35.597Z,3.30
2022-09-11T17:19:03.579Z,3.33
2022-09-11T17:21:35.783Z,3.40
2022-09-11T17:24:05.626Z,4.67
2022-09-11T17:26:33.703Z,3.60
2022-09-11T17:29:03.465Z,4.67
2022-09-11T17:31:32.050Z,5.13
2022-09-11T17:34:00.008Z,5.23
2022-09-11T17:36:28.593Z,3.97
2022-09-11T17:38:59.460Z,3.43
2022-09-11T17:41:27.403Z,3.77
2022-09-11T17:43:55.189Z,3.97
2022-09-11T17:46:24.775Z,3.50
2022-09-11T17:48:52.761Z,3.40
2022-09-11T17:51:24.161Z,4.50
2022-09-11T17:53:55.274Z,4.17
2022-09-11T17:56:26.203Z,3.10
2022-09-11T17:58:57.041Z,3.20
2022-09-11T18:01:26.079Z,3.40
2022-09-11T18:03:56.575Z,4.20
2022-09-11T18:06:28.190Z,6.03
2022-09-11T18:09:00.301Z,4.20
2022-09-11T18:11:30.060Z,5.00
2022-09-11T18:13:58.254Z,5.17
2022-09-11T18:16:26.269Z,5.30
2022-09-11T18:18:54.325Z,4.43
2022-09-11T18:21:22.196Z,4.60
2022-09-11T18:23:50.807Z,4.57
2022-09-11T18:26:22.017Z,4.63
2022-09-11T18:28:51.645Z,3.83
2022-09-11T18:31:20.149Z,3.73
2022-09-11T18:33:54.532Z,3.20
2022-09-11T18:36:23.496Z,3.10
2022-09-11T18:38:51.905Z,3.40
2022-09-11T18:41:20.370Z,3.60
2022-09-11T18:43:48.723Z,4.13
2022-09-11T18:46:17.897Z,3.57
2022-09-11T18:48:46.271Z,3.70
2022-09-11T18:51:15.263Z,3.70
2022-09-11T18:53:43.846Z,3.40
2022-09-11T18:56:11.977Z,3.23
2022-09-11T18:58:41.775Z,3.37
2022-09-11T19:01:12.084Z,3.53
2022-09-11T19:03:42.260Z,5.37
2022-09-11T19:06:14.110Z,4.97
2022-09-11T19:08:44.305Z,3.50
2022-09-11T19:11:14.953Z,3.80
2022-09-11T19:13:43.937Z,3.30
2022-09-11T19:16:12.682Z,3.07
2022-09-11T19:18:42.049Z,3.17
2022-09-11T19:21:12.310Z,3.20
2022-09-11T19:23:41.764Z,3.10
2022-09-11T19:26:13.032Z,3.70
2022-09-11T19:28:42.575Z,3.63
2022-09-11T19:31:12.060Z,3.53
2022-09-11T19:33:42.897Z,3.17
2022-09-11T19:36:14.936Z,3.17
2022-09-11T19:38:42.728Z,2.83
2022-09-11T19:41:12.714Z,2.87
2022-09-11T19:43:42.013Z,2.80
2022-09-11T19:46:12.332Z,2.90
2022-09-11T19:48:44.262Z,2.90
2022-09-11T19:51:13.540Z,2.80
2022-09-11T19:53:42.083Z,3.03
2022-09-11T19:56:11.150Z,2.63
2022-09-11T19:58:39.742Z,2.93
2022-09-11T20:01:09.943Z,3.07
2022-09-11T20:03:38.487Z,3.00
2022-09-11T20:06:09.398Z,3.00
2022-09-11T20:08:38.455Z,3.13
2022-09-11T20:11:08.561Z,3.50
2022-09-11T20:13:36.853Z,3.60
2022-09-11T20:16:05.633Z,3.53
2022-09-11T20:18:33.767Z,3.30
2022-09-11T20:21:02.983Z,3.97
2022-09-11T20:23:32.840Z,3.67
2022-09-11T20:26:09.557Z,3.30
2022-09-11T20:28:39.237Z,4.37
2022-09-11T20:31:13.700Z,3.70
2022-09-11T20:33:41.685Z,3.50
2022-09-11T20:36:09.881Z,3.80
2022-09-11T20:38:39.484Z,3.90
2022-09-11T20:41:08.381Z,3.60
2022-09-11T20:43:36.241Z,4.07
2022-09-11T20:46:04.592Z,3.90
2022-09-11T20:48:32.665Z,3.93
2022-09-11T20:51:04.197Z,4.40
2022-09-11T20:53:32.014Z,4.10
2022-09-11T20:56:06.976Z,4.83
2022-09-11T20:58:35.308Z,4.13
2022-09-11T21:01:03.499Z,3.70
2022-09-11T21:03:32.041Z,3.90
2022-09-11T21:06:06.821Z,3.80
2022-09-11T21:08:34.730Z,4.20
2022-09-11T21:11:05.272Z,4.13
2022-09-11T21:13:36.268Z,4.40
2022-09-11T21:16:07.462Z,4.10
2022-09-11T21:18:35.531Z,6.20
2022-09-11T21:21:03.449Z,4.30
2022-09-11T21:23:31.250Z,5.33
2022-09-11T21:25:59.360Z,4.20
2022-09-11T21:28:29.225Z,3.70
2022-09-11T21:30:58.545Z,4.63
2022-09-11T21:33:26.488Z,4.53
2022-09-11T21:35:55.589Z,4.80
2022-09-11T21:38:25.319Z,4.23
2022-09-11T21:40:53.141Z,4.40
2022-09-11T21:43:21.310Z,4.93
2022-09-11T21:45:50.447Z,4.80
2022-09-11T21:48:18.348Z,4.30
2022-09-11T21:50:46.318Z,4.47
2022-09-11T21:53:14.144Z,4.57
2022-09-11T21:55:43.447Z,4.77
2022-09-11T21:58:16.061Z,5.53
2022-09-11T22:00:44.290Z,5.37
2022-09-11T22:03:14.584Z,4.83
2022-09-11T22:05:44.125Z,5.37
2022-09-11T22:08:12.665Z,7.30
2022-09-11T22:10:42.842Z,5.27
2022-09-11T22:13:11.117Z,5.20
2022-09-11T22:15:41.009Z,4.87
2022-09-11T22:18:08.908Z,4.23
2022-09-11T22:20:38.880Z,4.47
2022-09-11T22:23:07.525Z,4.97
2022-09-11T22:25:36.788Z,4.70
2022-09-11T22:28:05.237Z,4.47
2022-09-11T22:30:33.433Z,5.03
2022-09-11T22:33:01.613Z,3.90
2022-09-11T22:35:29.774Z,4.77
2022-09-11T22:37:58.901Z,4.00
2022-09-11T22:40:26.712Z,4.97
2022-09-11T22:42:54.558Z,4.70
2022-09-11T22:45:22.401Z,4.37
2022-09-11T22:47:50.203Z,4.40
2022-09-11T22:50:18.269Z,4.30
2022-09-11T22:52:46.097Z,4.83
2022-09-11T22:55:15.466Z,4.60
2022-09-11T22:57:43.405Z,4.30
2022-09-11T23:00:14.665Z,4.73
2022-09-11T23:02:42.498Z,4.30
2022-09-11T23:05:28.016Z,4.50
2022-09-11T23:07:55.872Z,4.80
2022-09-11T23:10:25.417Z,4.43
2022-09-11T23:12:53.759Z,4.47
2022-09-11T23:15:22.546Z,4.27
2022-09-11T23:17:50.350Z,4.80
2022-09-11T23:20:18.945Z,4.87
2022-09-11T23:22:46.733Z,4.63
2022-09-11T23:25:14.804Z,4.63
2022-09-11T23:27:45.049Z,4.57
2022-09-11T23:30:13.440Z,4.77
2022-09-11T23:32:42.024Z,4.83
2022-09-11T23:35:10.755Z,4.70
2022-09-11T23:37:42.370Z,5.50
2022-09-11T23:40:13.157Z,4.53
2022-09-11T23:42:40.992Z,4.60
2022-09-11T23:45:12.682Z,4.97
2022-09-11T23:47:40.954Z,4.73
2022-09-11T23:50:10.099Z,5.40
2022-09-11T23:52:39.453Z,4.80
2022-09-11T23:55:08.283Z,5.47
2022-09-11T23:57:36.086Z,5.07
